Elizabeth, New Jersey
Current Conditions -  °F | °C
As of 1:51 PM on Sunday 23 Nov 2014 (Local Time) from KEWR Reporting Station
Broken Clouds Broken Clouds  
Wind Chill: 13°   Ceiling: 25000
Heat Index: 13°   Visibility: 10mi
Dew Point: -3°   Wind: 10mph
Humidity: 32%   Direction: 180°S
Pressure: 30.14"   Gusts: NA
Location:  40.66°N, 74.21°W
Report Text: KEWR 231851Z 18009KT 10SM FEW140 SCT200 BKN250 13/M03 A3014 RMK AO2 SLP205 T01321033
Loading
Personal Weather Stations






























Interactive Weather Map New forecast layout! Learn more

10-Day Weather Forecast

Advertisements
Track Severe Weather on mobile